sensor_id;sensor_type;location;lat;lon;timestamp;temperature;humidity
35445;DHT22;21562;49.476;6.086;2023-02-24T00:01:33;12.20;99.90
35445;DHT22;21562;49.476;6.086;2023-02-24T00:04:05;12.10;99.90
35445;DHT22;21562;49.476;6.086;2023-02-24T00:06:35;12.00;99.90
35445;DHT22;21562;49.476;6.086;2023-02-24T00:09:15;12.00;99.90
35445;DHT22;21562;49.476;6.086;2023-02-24T00:11:44;11.80;99.90
35445;DHT22;21562;49.476;6.086;2023-02-24T00:14:13;11.90;99.90
35445;DHT22;21562;49.476;6.086;2023-02-24T00:16:45;11.80;99.90
35445;DHT22;21562;49.476;6.086;2023-02-24T00:19:13;11.80;99.90
35445;DHT22;21562;49.476;6.086;2023-02-24T00:21:41;11.90;99.90
35445;DHT22;21562;49.476;6.086;2023-02-24T00:24:07;12.00;99.90
35445;DHT22;21562;49.476;6.086;2023-02-24T00:26:33;11.90;99.90
35445;DHT22;21562;49.476;6.086;2023-02-24T00:28:59;12.00;99.90
35445;DHT22;21562;49.476;6.086;2023-02-24T00:31:28;12.00;99.90
35445;DHT22;21562;49.476;6.086;2023-02-24T00:33:56;11.90;99.90
35445;DHT22;21562;49.476;6.086;2023-02-24T00:36:24;12.00;99.90
35445;DHT22;21562;49.476;6.086;2023-02-24T00:38:57;11.80;99.90
35445;DHT22;21562;49.476;6.086;2023-02-24T00:41:26;11.70;99.90
35445;DHT22;21562;49.476;6.086;2023-02-24T00:43:58;11.70;99.90
35445;DHT22;21562;49.476;6.086;2023-02-24T00:46:25;11.70;99.90
35445;DHT22;21562;49.476;6.086;2023-02-24T00:48:52;11.80;99.90
35445;DHT22;21562;49.476;6.086;2023-02-24T00:51:21;11.80;99.90
35445;DHT22;21562;49.476;6.086;2023-02-24T00:53:53;11.90;99.90
35445;DHT22;21562;49.476;6.086;2023-02-24T00:56:24;11.90;99.90
35445;DHT22;21562;49.476;6.086;2023-02-24T00:58:52;12.00;99.90
35445;DHT22;21562;49.476;6.086;2023-02-24T01:01:19;11.90;99.90
35445;DHT22;21562;49.476;6.086;2023-02-24T01:03:47;11.90;99.90
35445;DHT22;21562;49.476;6.086;2023-02-24T01:06:19;11.80;99.90
35445;DHT22;21562;49.476;6.086;2023-02-24T01:08:49;11.80;99.90
35445;DHT22;21562;49.476;6.086;2023-02-24T01:11:18;11.80;99.90
35445;DHT22;21562;49.476;6.086;2023-02-24T01:14:09;11.70;99.90
35445;DHT22;21562;49.476;6.086;2023-02-24T01:16:35;11.80;99.90
35445;DHT22;21562;49.476;6.086;2023-02-24T01:19:01;11.90;99.90
35445;DHT22;21562;49.476;6.086;2023-02-24T01:21:26;12.00;99.90
35445;DHT22;21562;49.476;6.086;2023-02-24T01:23:52;12.10;99.90
35445;DHT22;21562;49.476;6.086;2023-02-24T01:26:19;12.00;99.90
35445;DHT22;21562;49.476;6.086;2023-02-24T01:28:45;12.00;99.90
35445;DHT22;21562;49.476;6.086;2023-02-24T01:31:12;11.90;99.90
35445;DHT22;21562;49.476;6.086;2023-02-24T01:33:40;11.80;99.90
35445;DHT22;21562;49.476;6.086;2023-02-24T01:36:14;11.80;99.90
35445;DHT22;21562;49.476;6.086;2023-02-24T01:38:41;11.70;99.90
35445;DHT22;21562;49.476;6.086;2023-02-24T01:41:08;11.50;99.90
35445;DHT22;21562;49.476;6.086;2023-02-24T01:46:27;11.30;99.90
35445;DHT22;21562;49.476;6.086;2023-02-24T01:48:56;11.30;99.90
35445;DHT22;21562;49.476;6.086;2023-02-24T01:51:25;11.40;99.90
35445;DHT22;21562;49.476;6.086;2023-02-24T01:53:53;11.40;99.90
35445;DHT22;21562;49.476;6.086;2023-02-24T01:56:19;11.50;99.90
35445;DHT22;21562;49.476;6.086;2023-02-24T01:58:45;11.70;99.90
35445;DHT22;21562;49.476;6.086;2023-02-24T02:01:14;11.60;99.90
35445;DHT22;21562;49.476;6.086;2023-02-24T02:03:41;11.60;99.90
35445;DHT22;21562;49.476;6.086;2023-02-24T02:06:12;11.50;99.90
35445;DHT22;21562;49.476;6.086;2023-02-24T02:08:41;11.50;99.90
35445;DHT22;21562;49.476;6.086;2023-02-24T02:11:11;11.50;99.90
35445;DHT22;21562;49.476;6.086;2023-02-24T02:13:40;11.50;99.90
35445;DHT22;21562;49.476;6.086;2023-02-24T02:24:19;11.70;99.90
35445;DHT22;21562;49.476;6.086;2023-02-24T02:29:56;11.70;99.90
35445;DHT22;21562;49.476;6.086;2023-02-24T02:38:13;11.80;99.90
35445;DHT22;21562;49.476;6.086;2023-02-24T02:40:58;11.90;99.90
35445;DHT22;21562;49.476;6.086;2023-02-24T02:43:29;11.90;99.90
35445;DHT22;21562;49.476;6.086;2023-02-24T02:46:12;11.90;99.90
35445;DHT22;21562;49.476;6.086;2023-02-24T02:48:48;11.90;99.90
35445;DHT22;21562;49.476;6.086;2023-02-24T02:51:20;11.90;99.90
35445;DHT22;21562;49.476;6.086;2023-02-24T02:54:00;11.90;99.90
35445;DHT22;21562;49.476;6.086;2023-02-24T02:56:59;11.90;99.90
35445;DHT22;21562;49.476;6.086;2023-02-24T02:59:28;11.90;99.90
35445;DHT22;21562;49.476;6.086;2023-02-24T03:01:56;11.90;99.90
35445;DHT22;21562;49.476;6.086;2023-02-24T03:04:38;11.60;99.90
35445;DHT22;21562;49.476;6.086;2023-02-24T03:07:08;11.50;99.90
35445;DHT22;21562;49.476;6.086;2023-02-24T03:09:40;11.50;99.90
35445;DHT22;21562;49.476;6.086;2023-02-24T03:12:13;11.60;99.90
35445;DHT22;21562;49.476;6.086;2023-02-24T03:14:46;11.50;99.90
35445;DHT22;21562;49.476;6.086;2023-02-24T03:17:20;11.50;99.90
35445;DHT22;21562;49.476;6.086;2023-02-24T03:19:50;11.20;99.90
35445;DHT22;21562;49.476;6.086;2023-02-24T03:22:30;11.10;99.90
35445;DHT22;21562;49.476;6.086;2023-02-24T03:25:00;11.10;99.90
35445;DHT22;21562;49.476;6.086;2023-02-24T03:27:49;11.20;99.90
35445;DHT22;21562;49.476;6.086;2023-02-24T03:30:22;11.00;99.90
35445;DHT22;21562;49.476;6.086;2023-02-24T03:32:59;10.60;99.90
35445;DHT22;21562;49.476;6.086;2023-02-24T03:35:28;10.70;99.90
35445;DHT22;21562;49.476;6.086;2023-02-24T03:37:57;9.90;99.90
35445;DHT22;21562;49.476;6.086;2023-02-24T03:40:24;9.30;99.90
35445;DHT22;21562;49.476;6.086;2023-02-24T03:45:48;9.40;99.90
35445;DHT22;21562;49.476;6.086;2023-02-24T03:48:14;9.70;99.90
35445;DHT22;21562;49.476;6.086;2023-02-24T03:50:41;9.90;99.90
35445;DHT22;21562;49.476;6.086;2023-02-24T03:55:56;10.30;99.90
35445;DHT22;21562;49.476;6.086;2023-02-24T04:01:17;10.60;99.90
35445;DHT22;21562;49.476;6.086;2023-02-24T04:07:05;10.50;99.90
35445;DHT22;21562;49.476;6.086;2023-02-24T04:09:48;10.60;99.90
35445;DHT22;21562;49.476;6.086;2023-02-24T04:12:26;10.70;99.90
35445;DHT22;21562;49.476;6.086;2023-02-24T04:15:08;10.70;99.90
35445;DHT22;21562;49.476;6.086;2023-02-24T04:17:48;10.60;99.90
35445;DHT22;21562;49.476;6.086;2023-02-24T04:20:18;10.60;99.90
35445;DHT22;21562;49.476;6.086;2023-02-24T04:22:48;10.70;99.90
35445;DHT22;21562;49.476;6.086;2023-02-24T04:25:17;10.80;99.90
35445;DHT22;21562;49.476;6.086;2023-02-24T04:27:45;11.00;99.90
35445;DHT22;21562;49.476;6.086;2023-02-24T04:30:12;10.80;99.90
35445;DHT22;21562;49.476;6.086;2023-02-24T04:32:39;9.90;99.90
35445;DHT22;21562;49.476;6.086;2023-02-24T04:35:10;9.60;99.90
35445;DHT22;21562;49.476;6.086;2023-02-24T04:37:37;9.40;99.90
35445;DHT22;21562;49.476;6.086;2023-02-24T04:40:10;9.40;99.90
35445;DHT22;21562;49.476;6.086;2023-02-24T04:42:37;9.50;99.90
35445;DHT22;21562;49.476;6.086;2023-02-24T04:45:19;9.20;99.90
35445;DHT22;21562;49.476;6.086;2023-02-24T04:47:50;9.40;99.90
35445;DHT22;21562;49.476;6.086;2023-02-24T04:50:18;9.40;99.90
35445;DHT22;21562;49.476;6.086;2023-02-24T04:52:59;9.50;99.90
35445;DHT22;21562;49.476;6.086;2023-02-24T04:55:29;9.80;99.90
35445;DHT22;21562;49.476;6.086;2023-02-24T04:58:00;10.10;99.90
35445;DHT22;21562;49.476;6.086;2023-02-24T05:00:27;10.20;99.90
35445;DHT22;21562;49.476;6.086;2023-02-24T05:02:58;10.20;99.90
35445;DHT22;21562;49.476;6.086;2023-02-24T05:05:26;10.30;99.90
35445;DHT22;21562;49.476;6.086;2023-02-24T05:07:58;10.50;99.90
35445;DHT22;21562;49.476;6.086;2023-02-24T05:10:28;10.60;99.90
35445;DHT22;21562;49.476;6.086;2023-02-24T05:12:55;10.60;99.90
35445;DHT22;21562;49.476;6.086;2023-02-24T05:15:25;10.80;99.90
35445;DHT22;21562;49.476;6.086;2023-02-24T05:18:00;10.80;99.90
35445;DHT22;21562;49.476;6.086;2023-02-24T05:20:27;10.90;99.90
35445;DHT22;21562;49.476;6.086;2023-02-24T05:23:11;11.00;99.90
35445;DHT22;21562;49.476;6.086;2023-02-24T05:25:37;10.70;99.90
35445;DHT22;21562;49.476;6.086;2023-02-24T05:28:05;10.00;99.90
35445;DHT22;21562;49.476;6.086;2023-02-24T05:30:32;10.00;99.90
35445;DHT22;21562;49.476;6.086;2023-02-24T05:32:57;10.20;99.90
35445;DHT22;21562;49.476;6.086;2023-02-24T05:35:24;10.00;99.90
35445;DHT22;21562;49.476;6.086;2023-02-24T05:37:50;10.10;99.90
35445;DHT22;21562;49.476;6.086;2023-02-24T05:40:16;10.20;99.90
35445;DHT22;21562;49.476;6.086;2023-02-24T05:42:47;10.40;99.90
35445;DHT22;21562;49.476;6.086;2023-02-24T05:45:14;10.50;99.90
35445;DHT22;21562;49.476;6.086;2023-02-24T05:47:40;10.10;99.90
35445;DHT22;21562;49.476;6.086;2023-02-24T05:50:10;10.10;99.90
35445;DHT22;21562;49.476;6.086;2023-02-24T05:52:36;10.20;99.90
35445;DHT22;21562;49.476;6.086;2023-02-24T05:55:02;10.30;99.90
35445;DHT22;21562;49.476;6.086;2023-02-24T05:57:31;10.40;99.90
35445;DHT22;21562;49.476;6.086;2023-02-24T06:00:00;10.60;99.90
35445;DHT22;21562;49.476;6.086;2023-02-24T06:02:35;10.70;99.90
35445;DHT22;21562;49.476;6.086;2023-02-24T06:05:02;10.90;99.90
35445;DHT22;21562;49.476;6.086;2023-02-24T06:07:30;11.00;99.90
35445;DHT22;21562;49.476;6.086;2023-02-24T06:10:00;11.00;99.90
35445;DHT22;21562;49.476;6.086;2023-02-24T06:12:28;10.90;99.90
35445;DHT22;21562;49.476;6.086;2023-02-24T06:14:54;10.70;99.90
35445;DHT22;21562;49.476;6.086;2023-02-24T06:17:22;9.90;99.90
35445;DHT22;21562;49.476;6.086;2023-02-24T06:19:50;9.50;99.90
35445;DHT22;21562;49.476;6.086;2023-02-24T06:22:19;9.70;99.90
35445;DHT22;21562;49.476;6.086;2023-02-24T06:24:45;9.80;99.90
35445;DHT22;21562;49.476;6.086;2023-02-24T06:27:14;10.00;99.90
35445;DHT22;21562;49.476;6.086;2023-02-24T06:29:50;10.10;99.90
35445;DHT22;21562;49.476;6.086;2023-02-24T06:32:20;10.10;99.90
35445;DHT22;21562;49.476;6.086;2023-02-24T06:34:48;10.10;99.90
35445;DHT22;21562;49.476;6.086;2023-02-24T06:37:15;10.10;99.90
35445;DHT22;21562;49.476;6.086;2023-02-24T06:39:41;10.10;99.90
35445;DHT22;21562;49.476;6.086;2023-02-24T06:42:08;9.90;99.90
35445;DHT22;21562;49.476;6.086;2023-02-24T06:44:36;10.10;99.90
35445;DHT22;21562;49.476;6.086;2023-02-24T06:47:03;10.20;99.90
35445;DHT22;21562;49.476;6.086;2023-02-24T06:49:29;10.30;99.90
35445;DHT22;21562;49.476;6.086;2023-02-24T06:51:56;10.20;99.90
35445;DHT22;21562;49.476;6.086;2023-02-24T06:54:26;10.30;99.90
35445;DHT22;21562;49.476;6.086;2023-02-24T06:56:55;10.30;99.90
35445;DHT22;21562;49.476;6.086;2023-02-24T06:59:22;10.30;99.90
35445;DHT22;21562;49.476;6.086;2023-02-24T07:01:53;10.40;99.90
35445;DHT22;21562;49.476;6.086;2023-02-24T07:04:19;10.20;99.90
35445;DHT22;21562;49.476;6.086;2023-02-24T07:06:53;10.10;99.90
35445;DHT22;21562;49.476;6.086;2023-02-24T07:09:23;10.20;99.90
35445;DHT22;21562;49.476;6.086;2023-02-24T07:11:51;10.20;99.90
35445;DHT22;21562;49.476;6.086;2023-02-24T07:14:18;10.20;99.90
35445;DHT22;21562;49.476;6.086;2023-02-24T07:16:45;10.00;99.90
35445;DHT22;21562;49.476;6.086;2023-02-24T07:19:12;10.10;99.90
35445;DHT22;21562;49.476;6.086;2023-02-24T07:21:41;10.00;99.90
35445;DHT22;21562;49.476;6.086;2023-02-24T07:24:19;9.50;99.90
35445;DHT22;21562;49.476;6.086;2023-02-24T07:26:59;9.20;99.90
35445;DHT22;21562;49.476;6.086;2023-02-24T07:29:27;9.30;99.90
35445;DHT22;21562;49.476;6.086;2023-02-24T07:31:53;9.60;99.90
35445;DHT22;21562;49.476;6.086;2023-02-24T07:34:21;9.70;99.90
35445;DHT22;21562;49.476;6.086;2023-02-24T07:36:50;10.00;99.90
35445;DHT22;21562;49.476;6.086;2023-02-24T07:39:16;10.20;99.90
35445;DHT22;21562;49.476;6.086;2023-02-24T07:41:43;9.80;99.90
35445;DHT22;21562;49.476;6.086;2023-02-24T07:44:14;9.80;99.90
35445;DHT22;21562;49.476;6.086;2023-02-24T07:46:40;9.80;99.90
35445;DHT22;21562;49.476;6.086;2023-02-24T07:49:15;10.00;99.90
35445;DHT22;21562;49.476;6.086;2023-02-24T07:51:42;10.10;99.90
35445;DHT22;21562;49.476;6.086;2023-02-24T07:54:10;10.30;99.90
35445;DHT22;21562;49.476;6.086;2023-02-24T07:56:36;10.30;99.90
35445;DHT22;21562;49.476;6.086;2023-02-24T07:59:11;10.00;99.90
35445;DHT22;21562;49.476;6.086;2023-02-24T08:01:41;10.00;99.90
35445;DHT22;21562;49.476;6.086;2023-02-24T08:04:17;10.10;99.90
35445;DHT22;21562;49.476;6.086;2023-02-24T08:06:44;9.60;99.90
35445;DHT22;21562;49.476;6.086;2023-02-24T08:09:13;9.50;99.90
35445;DHT22;21562;49.476;6.086;2023-02-24T08:11:44;9.80;99.90
35445;DHT22;21562;49.476;6.086;2023-02-24T08:14:13;9.80;99.90
35445;DHT22;21562;49.476;6.086;2023-02-24T08:16:43;9.10;99.90
35445;DHT22;21562;49.476;6.086;2023-02-24T08:19:15;9.10;99.90
35445;DHT22;21562;49.476;6.086;2023-02-24T08:21:47;9.50;99.90
35445;DHT22;21562;49.476;6.086;2023-02-24T08:24:17;9.50;99.90
35445;DHT22;21562;49.476;6.086;2023-02-24T08:26:48;9.20;99.90
35445;DHT22;21562;49.476;6.086;2023-02-24T08:29:30;9.10;99.90
35445;DHT22;21562;49.476;6.086;2023-02-24T08:31:58;9.10;99.90
35445;DHT22;21562;49.476;6.086;2023-02-24T08:34:24;9.30;99.90
35445;DHT22;21562;49.476;6.086;2023-02-24T08:36:56;9.50;99.90
35445;DHT22;21562;49.476;6.086;2023-02-24T08:39:22;9.80;99.90
35445;DHT22;21562;49.476;6.086;2023-02-24T08:41:48;10.10;99.90
35445;DHT22;21562;49.476;6.086;2023-02-24T08:44:17;10.20;99.90
35445;DHT22;21562;49.476;6.086;2023-02-24T08:46:47;10.20;99.90
35445;DHT22;21562;49.476;6.086;2023-02-24T08:49:20;10.30;99.90
35445;DHT22;21562;49.476;6.086;2023-02-24T08:51:53;9.90;99.90
35445;DHT22;21562;49.476;6.086;2023-02-24T08:54:32;9.50;99.90
35445;DHT22;21562;49.476;6.086;2023-02-24T08:56:59;9.70;99.90
35445;DHT22;21562;49.476;6.086;2023-02-24T08:59:43;9.90;99.90
35445;DHT22;21562;49.476;6.086;2023-02-24T09:02:19;10.00;99.90
35445;DHT22;21562;49.476;6.086;2023-02-24T09:04:54;9.70;99.90
35445;DHT22;21562;49.476;6.086;2023-02-24T09:07:35;9.10;99.90
35445;DHT22;21562;49.476;6.086;2023-02-24T09:10:16;8.80;99.90
35445;DHT22;21562;49.476;6.086;2023-02-24T09:12:43;9.00;99.90
35445;DHT22;21562;49.476;6.086;2023-02-24T09:15:11;9.20;99.90
35445;DHT22;21562;49.476;6.086;2023-02-24T09:17:42;9.30;99.90
35445;DHT22;21562;49.476;6.086;2023-02-24T09:20:19;9.50;99.90
35445;DHT22;21562;49.476;6.086;2023-02-24T09:22:53;9.70;99.90
35445;DHT22;21562;49.476;6.086;2023-02-24T09:25:26;9.50;99.90
35445;DHT22;21562;49.476;6.086;2023-02-24T09:28:21;9.50;99.90
35445;DHT22;21562;49.476;6.086;2023-02-24T09:31:20;9.60;99.90
35445;DHT22;21562;49.476;6.086;2023-02-24T09:34:34;9.70;99.90
35445;DHT22;21562;49.476;6.086;2023-02-24T09:37:34;9.10;99.90
35445;DHT22;21562;49.476;6.086;2023-02-24T09:43:59;9.40;99.90
35445;DHT22;21562;49.476;6.086;2023-02-24T09:50:12;9.00;99.90
35445;DHT22;21562;49.476;6.086;2023-02-24T09:53:18;9.20;99.90
35445;DHT22;21562;49.476;6.086;2023-02-24T09:56:02;9.10;99.90
35445;DHT22;21562;49.476;6.086;2023-02-24T10:05:35;9.10;99.90
35445;DHT22;21562;49.476;6.086;2023-02-24T10:18:32;9.30;99.90
35445;DHT22;21562;49.476;6.086;2023-02-24T10:21:54;9.90;99.90
35445;DHT22;21562;49.476;6.086;2023-02-24T10:31:44;10.40;99.90
35445;DHT22;21562;49.476;6.086;2023-02-24T10:41:44;10.70;99.90
35445;DHT22;21562;49.476;6.086;2023-02-24T10:47:54;10.20;99.90
35445;DHT22;21562;49.476;6.086;2023-02-24T10:57:53;10.20;99.90
35445;DHT22;21562;49.476;6.086;2023-02-24T11:01:17;10.10;99.90
35445;DHT22;21562;49.476;6.086;2023-02-24T11:04:35;9.80;99.90
35445;DHT22;21562;49.476;6.086;2023-02-24T11:07:23;10.10;99.90
35445;DHT22;21562;49.476;6.086;2023-02-24T11:10:02;10.60;99.90
35445;DHT22;21562;49.476;6.086;2023-02-24T11:12:46;11.10;99.90
35445;DHT22;21562;49.476;6.086;2023-02-24T11:15:35;11.00;99.90
35445;DHT22;21562;49.476;6.086;2023-02-24T11:18:24;10.50;99.90
35445;DHT22;21562;49.476;6.086;2023-02-24T11:21:01;10.40;99.90
35445;DHT22;21562;49.476;6.086;2023-02-24T11:23:55;10.20;99.90
35445;DHT22;21562;49.476;6.086;2023-02-24T11:26:57;10.20;99.90
35445;DHT22;21562;49.476;6.086;2023-02-24T11:29:55;10.20;99.90
35445;DHT22;21562;49.476;6.086;2023-02-24T11:35:20;10.40;99.90
35445;DHT22;21562;49.476;6.086;2023-02-24T11:41:38;10.30;99.90
35445;DHT22;21562;49.476;6.086;2023-02-24T11:46:53;11.20;99.90
35445;DHT22;21562;49.476;6.086;2023-02-24T11:49:40;11.00;99.90
35445;DHT22;21562;49.476;6.086;2023-02-24T11:52:13;10.90;99.90
35445;DHT22;21562;49.476;6.086;2023-02-24T11:54:53;11.10;99.90
35445;DHT22;21562;49.476;6.086;2023-02-24T11:57:26;11.30;99.90
35445;DHT22;21562;49.476;6.086;2023-02-24T12:00:04;11.80;99.90
35445;DHT22;21562;49.476;6.086;2023-02-24T12:02:49;12.00;99.90
35445;DHT22;21562;49.476;6.086;2023-02-24T12:05:37;12.10;99.90
35445;DHT22;21562;49.476;6.086;2023-02-24T12:11:29;11.80;99.90
35445;DHT22;21562;49.476;6.086;2023-02-24T12:16:43;11.50;99.90
35445;DHT22;21562;49.476;6.086;2023-02-24T12:22:20;11.10;99.90
35445;DHT22;21562;49.476;6.086;2023-02-24T12:24:51;11.00;99.90
35445;DHT22;21562;49.476;6.086;2023-02-24T12:30:58;11.30;99.90
35445;DHT22;21562;49.476;6.086;2023-02-24T12:34:04;11.10;99.90
35445;DHT22;21562;49.476;6.086;2023-02-24T12:37:04;11.40;99.90
35445;DHT22;21562;49.476;6.086;2023-02-24T12:39:48;11.80;99.90
35445;DHT22;21562;49.476;6.086;2023-02-24T12:56:20;11.90;99.90
35445;DHT22;21562;49.476;6.086;2023-02-24T12:58:52;11.60;99.90
35445;DHT22;21562;49.476;6.086;2023-02-24T13:01:58;11.10;99.90
35445;DHT22;21562;49.476;6.086;2023-02-24T13:07:46;11.20;99.90
35445;DHT22;21562;49.476;6.086;2023-02-24T13:11:02;11.30;99.90
35445;DHT22;21562;49.476;6.086;2023-02-24T13:13:52;11.60;99.90
35445;DHT22;21562;49.476;6.086;2023-02-24T13:16:33;11.90;99.90
35445;DHT22;21562;49.476;6.086;2023-02-24T13:21:53;11.50;99.90
35445;DHT22;21562;49.476;6.086;2023-02-24T13:24:21;11.40;99.90
35445;DHT22;21562;49.476;6.086;2023-02-24T13:26:47;11.50;99.90
35445;DHT22;21562;49.476;6.086;2023-02-24T13:29:13;11.50;99.90
35445;DHT22;21562;49.476;6.086;2023-02-24T13:31:48;11.50;99.90
35445;DHT22;21562;49.476;6.086;2023-02-24T13:34:43;11.60;99.90
35445;DHT22;21562;49.476;6.086;2023-02-24T13:37:09;11.60;99.90
35445;DHT22;21562;49.476;6.086;2023-02-24T13:39:37;11.40;99.90
35445;DHT22;21562;49.476;6.086;2023-02-24T13:42:21;11.50;99.90
35445;DHT22;21562;49.476;6.086;2023-02-24T13:53:26;12.10;99.90
35445;DHT22;21562;49.476;6.086;2023-02-24T14:01:16;12.00;99.90
35445;DHT22;21562;49.476;6.086;2023-02-24T14:03:48;11.90;99.90
35445;DHT22;21562;49.476;6.086;2023-02-24T14:06:25;11.80;99.90
35445;DHT22;21562;49.476;6.086;2023-02-24T14:09:02;11.80;99.90
35445;DHT22;21562;49.476;6.086;2023-02-24T14:11:32;11.80;99.90
35445;DHT22;21562;49.476;6.086;2023-02-24T14:13:59;11.50;99.90
35445;DHT22;21562;49.476;6.086;2023-02-24T14:16:35;11.40;99.90
35445;DHT22;21562;49.476;6.086;2023-02-24T14:19:10;11.20;99.90
35445;DHT22;21562;49.476;6.086;2023-02-24T14:21:36;11.60;99.90
35445;DHT22;21562;49.476;6.086;2023-02-24T14:24:12;11.90;99.90
35445;DHT22;21562;49.476;6.086;2023-02-24T14:26:47;11.90;99.90
35445;DHT22;21562;49.476;6.086;2023-02-24T14:29:20;11.80;99.90
35445;DHT22;21562;49.476;6.086;2023-02-24T14:31:48;12.00;99.90
35445;DHT22;21562;49.476;6.086;2023-02-24T14:34:17;11.80;99.90
35445;DHT22;21562;49.476;6.086;2023-02-24T14:36:44;13.00;99.90
35445;DHT22;21562;49.476;6.086;2023-02-24T14:39:29;13.70;99.90
35445;DHT22;21562;49.476;6.086;2023-02-24T14:44:43;13.70;99.90
35445;DHT22;21562;49.476;6.086;2023-02-24T14:47:15;13.90;99.90
35445;DHT22;21562;49.476;6.086;2023-02-24T14:49:51;13.60;99.90
35445;DHT22;21562;49.476;6.086;2023-02-24T14:52:43;13.10;99.90
35445;DHT22;21562;49.476;6.086;2023-02-24T14:55:30;12.60;99.90
35445;DHT22;21562;49.476;6.086;2023-02-24T15:00:37;13.50;99.90
35445;DHT22;21562;49.476;6.086;2023-02-24T15:03:24;13.90;99.40
35445;DHT22;21562;49.476;6.086;2023-02-24T15:05:53;14.20;99.50
35445;DHT22;21562;49.476;6.086;2023-02-24T15:08:42;13.70;99.40
35445;DHT22;21562;49.476;6.086;2023-02-24T15:11:41;13.10;99.90
35445;DHT22;21562;49.476;6.086;2023-02-24T15:14:20;12.90;99.90
35445;DHT22;21562;49.476;6.086;2023-02-24T15:16:50;13.20;99.90
35445;DHT22;21562;49.476;6.086;2023-02-24T15:19:46;13.50;99.90
35445;DHT22;21562;49.476;6.086;2023-02-24T15:22:50;13.70;99.90
35445;DHT22;21562;49.476;6.086;2023-02-24T15:25:25;13.80;99.60
35445;DHT22;21562;49.476;6.086;2023-02-24T15:28:29;13.40;99.90
35445;DHT22;21562;49.476;6.086;2023-02-24T15:31:27;14.20;99.50
35445;DHT22;21562;49.476;6.086;2023-02-24T15:34:20;14.10;99.40
35445;DHT22;21562;49.476;6.086;2023-02-24T15:37:11;14.30;98.60
35445;DHT22;21562;49.476;6.086;2023-02-24T15:46:48;13.00;99.60
35445;DHT22;21562;49.476;6.086;2023-02-24T15:53:08;12.80;99.90
35445;DHT22;21562;49.476;6.086;2023-02-24T16:05:34;13.50;98.90
35445;DHT22;21562;49.476;6.086;2023-02-24T16:08:20;13.30;99.50
35445;DHT22;21562;49.476;6.086;2023-02-24T16:10:48;13.60;99.90
35445;DHT22;21562;49.476;6.086;2023-02-24T16:13:19;13.60;99.90
35445;DHT22;21562;49.476;6.086;2023-02-24T16:15:46;13.00;99.90
35445;DHT22;21562;49.476;6.086;2023-02-24T16:18:35;12.70;99.90
35445;DHT22;21562;49.476;6.086;2023-02-24T16:21:01;12.70;99.90
35445;DHT22;21562;49.476;6.086;2023-02-24T16:23:43;12.50;99.90
35445;DHT22;21562;49.476;6.086;2023-02-24T16:26:15;12.10;99.90
35445;DHT22;21562;49.476;6.086;2023-02-24T16:29:01;11.70;99.90
35445;DHT22;21562;49.476;6.086;2023-02-24T16:35:26;12.40;99.90
35445;DHT22;21562;49.476;6.086;2023-02-24T17:35:41;10.50;99.40
35445;DHT22;21562;49.476;6.086;2023-02-24T17:38:14;9.70;99.90
35445;DHT22;21562;49.476;6.086;2023-02-24T17:40:41;9.90;99.90
35445;DHT22;21562;49.476;6.086;2023-02-24T17:43:07;9.50;99.90
35445;DHT22;21562;49.476;6.086;2023-02-24T17:45:33;9.50;99.90
35445;DHT22;21562;49.476;6.086;2023-02-24T17:47:58;9.80;99.90
35445;DHT22;21562;49.476;6.086;2023-02-24T17:50:24;10.00;99.90
35445;DHT22;21562;49.476;6.086;2023-02-24T17:52:50;10.10;99.90
35445;DHT22;21562;49.476;6.086;2023-02-24T17:55:15;10.00;99.90
35445;DHT22;21562;49.476;6.086;2023-02-24T17:57:41;9.80;99.90
35445;DHT22;21562;49.476;6.086;2023-02-24T18:00:09;9.70;99.90
35445;DHT22;21562;49.476;6.086;2023-02-24T18:02:35;10.00;99.90
35445;DHT22;21562;49.476;6.086;2023-02-24T18:05:01;10.00;99.90
35445;DHT22;21562;49.476;6.086;2023-02-24T18:07:27;10.10;99.90
35445;DHT22;21562;49.476;6.086;2023-02-24T18:09:53;9.90;99.90
35445;DHT22;21562;49.476;6.086;2023-02-24T18:12:19;9.60;99.90
35445;DHT22;21562;49.476;6.086;2023-02-24T18:14:45;9.90;99.90
35445;DHT22;21562;49.476;6.086;2023-02-24T18:17:13;10.10;99.90
35445;DHT22;21562;49.476;6.086;2023-02-24T18:19:38;9.90;99.90
35445;DHT22;21562;49.476;6.086;2023-02-24T18:22:04;9.40;99.90
35445;DHT22;21562;49.476;6.086;2023-02-24T18:24:30;8.90;99.90
35445;DHT22;21562;49.476;6.086;2023-02-24T18:26:55;8.80;99.90
35445;DHT22;21562;49.476;6.086;2023-02-24T18:29:21;9.00;99.90
35445;DHT22;21562;49.476;6.086;2023-02-24T18:31:47;8.80;99.90
35445;DHT22;21562;49.476;6.086;2023-02-24T18:34:13;8.70;99.90
35445;DHT22;21562;49.476;6.086;2023-02-24T18:36:39;8.60;99.90
35445;DHT22;21562;49.476;6.086;2023-02-24T18:39:05;8.60;99.90
35445;DHT22;21562;49.476;6.086;2023-02-24T18:41:33;8.70;99.90
35445;DHT22;21562;49.476;6.086;2023-02-24T18:43:58;8.80;99.90
35445;DHT22;21562;49.476;6.086;2023-02-24T18:46:25;8.70;99.90
35445;DHT22;21562;49.476;6.086;2023-02-24T18:48:51;8.90;99.90
35445;DHT22;21562;49.476;6.086;2023-02-24T18:51:19;9.00;99.90
35445;DHT22;21562;49.476;6.086;2023-02-24T18:53:46;9.30;99.90
35445;DHT22;21562;49.476;6.086;2023-02-24T18:56:17;9.40;99.90
35445;DHT22;21562;49.476;6.086;2023-02-24T18:58:44;9.60;99.90
35445;DHT22;21562;49.476;6.086;2023-02-24T19:01:18;9.70;99.90
35445;DHT22;21562;49.476;6.086;2023-02-24T19:03:45;9.40;99.90
35445;DHT22;21562;49.476;6.086;2023-02-24T19:06:11;9.50;99.90
35445;DHT22;21562;49.476;6.086;2023-02-24T19:08:38;9.00;99.90
35445;DHT22;21562;49.476;6.086;2023-02-24T19:11:16;8.70;99.90
35445;DHT22;21562;49.476;6.086;2023-02-24T19:13:42;8.80;99.90
35445;DHT22;21562;49.476;6.086;2023-02-24T19:16:09;8.60;99.90
35445;DHT22;21562;49.476;6.086;2023-02-24T19:18:35;8.30;99.90
35445;DHT22;21562;49.476;6.086;2023-02-24T19:21:04;8.50;99.90
35445;DHT22;21562;49.476;6.086;2023-02-24T19:23:30;8.50;99.90
35445;DHT22;21562;49.476;6.086;2023-02-24T19:25:55;8.20;99.90
35445;DHT22;21562;49.476;6.086;2023-02-24T19:28:21;8.30;99.90
35445;DHT22;21562;49.476;6.086;2023-02-24T19:30:47;8.00;99.90
35445;DHT22;21562;49.476;6.086;2023-02-24T19:33:12;7.90;99.90
35445;DHT22;21562;49.476;6.086;2023-02-24T19:35:39;8.00;99.90
35445;DHT22;21562;49.476;6.086;2023-02-24T19:38:06;8.20;99.90
35445;DHT22;21562;49.476;6.086;2023-02-24T19:40:33;8.20;99.90
35445;DHT22;21562;49.476;6.086;2023-02-24T19:42:58;8.00;99.90
35445;DHT22;21562;49.476;6.086;2023-02-24T19:45:24;7.90;99.90
35445;DHT22;21562;49.476;6.086;2023-02-24T19:47:49;8.10;99.90
35445;DHT22;21562;49.476;6.086;2023-02-24T19:50:16;8.20;99.90
35445;DHT22;21562;49.476;6.086;2023-02-24T19:52:42;8.00;99.90
35445;DHT22;21562;49.476;6.086;2023-02-24T19:55:09;7.80;99.90
35445;DHT22;21562;49.476;6.086;2023-02-24T19:57:35;7.70;99.90